sensor_id;sensor_type;location;lat;lon;timestamp;pressure;altitude;pressure_sealevel;temperature;humidity
15193;BME280;7697;51.630;7.484;2023-04-23T00:03:55;100078.69;;;13.71;96.34
15193;BME280;7697;51.630;7.484;2023-04-23T00:09:00;100082.28;;;13.65;95.88
15193;BME280;7697;51.630;7.484;2023-04-23T00:14:03;100077.09;;;13.58;96.42
15193;BME280;7697;51.630;7.484;2023-04-23T00:19:05;100084.13;;;13.52;95.95
15193;BME280;7697;51.630;7.484;2023-04-23T00:24:08;100071.38;;;13.43;96.17
15193;BME280;7697;51.630;7.484;2023-04-23T00:29:10;100077.19;;;13.40;95.54
15193;BME280;7697;51.630;7.484;2023-04-23T00:34:12;100073.94;;;13.38;95.35
15193;BME280;7697;51.630;7.484;2023-04-23T00:39:15;100069.53;;;13.32;95.32
15193;BME280;7697;51.630;7.484;2023-04-23T00:44:17;100063.97;;;13.33;95.73
15193;BME280;7697;51.630;7.484;2023-04-23T00:49:20;100070.81;;;13.29;95.67
15193;BME280;7697;51.630;7.484;2023-04-23T00:54:24;100073.31;;;13.24;95.58
15193;BME280;7697;51.630;7.484;2023-04-23T00:59:26;100065.81;;;13.21;95.18
15193;BME280;7697;51.630;7.484;2023-04-23T01:04:29;100072.63;;;13.17;95.50
15193;BME280;7697;51.630;7.484;2023-04-23T01:09:34;100075.13;;;13.12;95.13
15193;BME280;7697;51.630;7.484;2023-04-23T01:14:36;100063.22;;;13.03;95.17
15193;BME280;7697;51.630;7.484;2023-04-23T01:19:38;100075.31;;;12.99;95.76
15193;BME280;7697;51.630;7.484;2023-04-23T01:24:42;100082.75;;;12.97;95.58
15193;BME280;7697;51.630;7.484;2023-04-23T01:29:44;100070.13;;;12.92;95.57
15193;BME280;7697;51.630;7.484;2023-04-23T01:34:46;100048.47;;;12.89;95.54
15193;BME280;7697;51.630;7.484;2023-04-23T01:39:50;100066.06;;;12.90;96.04
15193;BME280;7697;51.630;7.484;2023-04-23T01:44:52;100066.53;;;12.87;96.15
15193;BME280;7697;51.630;7.484;2023-04-23T01:49:54;100068.22;;;12.81;96.59
15193;BME280;7697;51.630;7.484;2023-04-23T01:54:57;100056.66;;;12.75;96.17
15193;BME280;7697;51.630;7.484;2023-04-23T02:00:03;100072.00;;;12.73;96.59
15193;BME280;7697;51.630;7.484;2023-04-23T02:05:11;100072.47;;;12.70;96.52
15193;BME280;7697;51.630;7.484;2023-04-23T02:10:15;100066.78;;;12.67;96.60
15193;BME280;7697;51.630;7.484;2023-04-23T02:15:18;100066.09;;;12.60;96.43
15193;BME280;7697;51.630;7.484;2023-04-23T02:20:21;100074.13;;;12.53;97.55
15193;BME280;7697;51.630;7.484;2023-04-23T02:25:24;100060.28;;;12.51;97.19
15193;BME280;7697;51.630;7.484;2023-04-23T02:30:26;100064.78;;;12.51;97.19
15193;BME280;7697;51.630;7.484;2023-04-23T02:35:28;100074.22;;;12.47;97.17
15193;BME280;7697;51.630;7.484;2023-04-23T02:40:31;100060.59;;;12.43;97.64
15193;BME280;7697;51.630;7.484;2023-04-23T02:45:33;100059.41;;;12.39;97.31
15193;BME280;7697;51.630;7.484;2023-04-23T02:50:34;100061.13;;;12.33;96.96
15193;BME280;7697;51.630;7.484;2023-04-23T02:55:39;100059.09;;;12.29;97.27
15193;BME280;7697;51.630;7.484;2023-04-23T03:00:41;100058.38;;;12.22;97.46
15193;BME280;7697;51.630;7.484;2023-04-23T03:05:43;100056.97;;;12.19;97.61
15193;BME280;7697;51.630;7.484;2023-04-23T03:10:46;100055.59;;;12.17;98.03
15193;BME280;7697;51.630;7.484;2023-04-23T03:15:49;100053.38;;;12.14;97.66
15193;BME280;7697;51.630;7.484;2023-04-23T03:20:51;100041.44;;;12.05;97.94
15193;BME280;7697;51.630;7.484;2023-04-23T03:25:54;100042.03;;;11.88;98.52
15193;BME280;7697;51.630;7.484;2023-04-23T03:30:56;100043.34;;;11.79;99.52
15193;BME280;7697;51.630;7.484;2023-04-23T03:35:58;100044.38;;;11.78;99.59
15193;BME280;7697;51.630;7.484;2023-04-23T03:41:01;100036.56;;;11.83;99.23
15193;BME280;7697;51.630;7.484;2023-04-23T03:46:03;100030.09;;;11.79;99.19
15193;BME280;7697;51.630;7.484;2023-04-23T03:51:05;100044.03;;;11.68;99.67
15193;BME280;7697;51.630;7.484;2023-04-23T03:56:09;100031.97;;;11.54;100.00
15193;BME280;7697;51.630;7.484;2023-04-23T04:01:10;100031.34;;;11.52;100.00
15193;BME280;7697;51.630;7.484;2023-04-23T04:06:12;100026.47;;;11.49;100.00
15193;BME280;7697;51.630;7.484;2023-04-23T04:11:15;100026.66;;;11.54;100.00
15193;BME280;7697;51.630;7.484;2023-04-23T04:16:17;100019.44;;;11.61;100.00
15193;BME280;7697;51.630;7.484;2023-04-23T04:21:18;100027.75;;;11.64;100.00
15193;BME280;7697;51.630;7.484;2023-04-23T04:26:22;100031.38;;;11.70;100.00
15193;BME280;7697;51.630;7.484;2023-04-23T04:31:24;100028.72;;;11.70;100.00
15193;BME280;7697;51.630;7.484;2023-04-23T04:36:27;100013.25;;;11.67;99.76
15193;BME280;7697;51.630;7.484;2023-04-23T04:41:30;100015.81;;;11.55;99.90
15193;BME280;7697;51.630;7.484;2023-04-23T04:46:32;100014.72;;;11.45;100.00
15193;BME280;7697;51.630;7.484;2023-04-23T04:51:36;100006.56;;;11.40;100.00
15193;BME280;7697;51.630;7.484;2023-04-23T04:56:41;100004.59;;;11.35;100.00
15193;BME280;7697;51.630;7.484;2023-04-23T05:01:43;99999.56;;;11.27;100.00
15193;BME280;7697;51.630;7.484;2023-04-23T05:06:45;100006.72;;;11.26;100.00
15193;BME280;7697;51.630;7.484;2023-04-23T05:11:48;100001.16;;;11.28;100.00
15193;BME280;7697;51.630;7.484;2023-04-23T05:16:51;99998.53;;;11.28;100.00
15193;BME280;7697;51.630;7.484;2023-04-23T05:21:52;100002.25;;;11.20;100.00
15193;BME280;7697;51.630;7.484;2023-04-23T05:26:56;100009.56;;;11.25;100.00
15193;BME280;7697;51.630;7.484;2023-04-23T05:31:57;100017.31;;;11.26;100.00
15193;BME280;7697;51.630;7.484;2023-04-23T05:37:00;100015.91;;;11.24;100.00
15193;BME280;7697;51.630;7.484;2023-04-23T05:42:03;100021.34;;;11.29;100.00
15193;BME280;7697;51.630;7.484;2023-04-23T05:47:05;100012.16;;;11.32;100.00
15193;BME280;7697;51.630;7.484;2023-04-23T05:52:07;100016.31;;;11.46;100.00
15193;BME280;7697;51.630;7.484;2023-04-23T05:57:10;100015.75;;;11.62;100.00
15193;BME280;7697;51.630;7.484;2023-04-23T06:02:12;100013.97;;;11.81;100.00
15193;BME280;7697;51.630;7.484;2023-04-23T06:07:13;100007.59;;;12.00;100.00
15193;BME280;7697;51.630;7.484;2023-04-23T06:12:17;100003.97;;;12.13;100.00
15193;BME280;7697;51.630;7.484;2023-04-23T06:17:19;99998.75;;;12.36;100.00
15193;BME280;7697;51.630;7.484;2023-04-23T06:22:21;99989.72;;;12.55;100.00
15193;BME280;7697;51.630;7.484;2023-04-23T06:27:24;100001.22;;;12.79;99.61
15193;BME280;7697;51.630;7.484;2023-04-23T06:32:36;99983.94;;;13.11;98.87
15193;BME280;7697;51.630;7.484;2023-04-23T06:37:37;99985.44;;;13.42;98.46
15193;BME280;7697;51.630;7.484;2023-04-23T06:42:41;99993.41;;;13.77;97.63
15193;BME280;7697;51.630;7.484;2023-04-23T06:47:44;99995.94;;;13.96;97.09
15193;BME280;7697;51.630;7.484;2023-04-23T06:52:46;99988.69;;;14.08;97.23
15193;BME280;7697;51.630;7.484;2023-04-23T06:57:50;99989.09;;;14.28;96.31
15193;BME280;7697;51.630;7.484;2023-04-23T07:02:51;99980.47;;;14.38;96.37
15193;BME280;7697;51.630;7.484;2023-04-23T07:07:54;99986.69;;;14.55;95.84
15193;BME280;7697;51.630;7.484;2023-04-23T07:12:57;99975.28;;;14.59;95.22
15193;BME280;7697;51.630;7.484;2023-04-23T07:17:58;99975.44;;;14.53;94.51
15193;BME280;7697;51.630;7.484;2023-04-23T07:23:00;99974.34;;;14.49;94.66
15193;BME280;7697;51.630;7.484;2023-04-23T07:28:04;99974.34;;;14.49;94.82
15193;BME280;7697;51.630;7.484;2023-04-23T07:33:06;99969.16;;;14.59;94.70
15193;BME280;7697;51.630;7.484;2023-04-23T07:38:08;99966.44;;;14.71;94.59
15193;BME280;7697;51.630;7.484;2023-04-23T07:43:12;99968.63;;;14.90;94.55
15193;BME280;7697;51.630;7.484;2023-04-23T07:48:14;99965.06;;;15.01;93.50
15193;BME280;7697;51.630;7.484;2023-04-23T07:53:15;99965.28;;;15.17;92.47
15193;BME280;7697;51.630;7.484;2023-04-23T07:58:18;99968.66;;;15.46;92.36
15193;BME280;7697;51.630;7.484;2023-04-23T08:03:21;99950.94;;;15.78;90.17
15193;BME280;7697;51.630;7.484;2023-04-23T08:08:23;99951.09;;;16.15;89.63
15193;BME280;7697;51.630;7.484;2023-04-23T08:13:26;99963.91;;;16.62;87.69
15193;BME280;7697;51.630;7.484;2023-04-23T08:18:28;99956.75;;;17.04;86.00
15193;BME280;7697;51.630;7.484;2023-04-23T08:23:30;99954.22;;;17.30;84.10
15193;BME280;7697;51.630;7.484;2023-04-23T08:28:33;99937.78;;;17.58;82.31
15193;BME280;7697;51.630;7.484;2023-04-23T08:33:35;99941.16;;;17.90;82.61
15193;BME280;7697;51.630;7.484;2023-04-23T08:38:37;99930.53;;;18.36;81.43
15193;BME280;7697;51.630;7.484;2023-04-23T08:43:43;99935.44;;;18.74;78.78
15193;BME280;7697;51.630;7.484;2023-04-23T08:48:51;99931.66;;;18.91;77.52
15193;BME280;7697;51.630;7.484;2023-04-23T08:53:55;99927.31;;;19.30;76.53
15193;BME280;7697;51.630;7.484;2023-04-23T08:59:00;99924.78;;;19.69;75.15
15193;BME280;7697;51.630;7.484;2023-04-23T09:04:03;99932.97;;;19.98;74.21
15193;BME280;7697;51.630;7.484;2023-04-23T09:09:06;99930.34;;;20.32;73.68
15193;BME280;7697;51.630;7.484;2023-04-23T09:14:11;99929.41;;;20.57;70.21
15193;BME280;7697;51.630;7.484;2023-04-23T09:19:13;99921.16;;;20.77;68.63
15193;BME280;7697;51.630;7.484;2023-04-23T09:24:15;99935.56;;;20.63;69.68
15193;BME280;7697;51.630;7.484;2023-04-23T09:29:19;99922.66;;;20.59;69.32
15193;BME280;7697;51.630;7.484;2023-04-23T09:34:23;99915.44;;;20.55;68.28
15193;BME280;7697;51.630;7.484;2023-04-23T09:39:25;99911.59;;;20.61;67.55
15193;BME280;7697;51.630;7.484;2023-04-23T09:44:31;99903.63;;;21.09;66.99
15193;BME280;7697;51.630;7.484;2023-04-23T09:49:44;99901.03;;;21.51;64.28
15193;BME280;7697;51.630;7.484;2023-04-23T09:54:45;99893.78;;;21.70;64.42
15193;BME280;7697;51.630;7.484;2023-04-23T09:59:48;99891.88;;;22.14;62.54
15193;BME280;7697;51.630;7.484;2023-04-23T10:04:50;99896.22;;;22.28;61.51
15193;BME280;7697;51.630;7.484;2023-04-23T10:09:55;99892.50;;;22.43;60.09
15193;BME280;7697;51.630;7.484;2023-04-23T10:14:59;99875.72;;;21.90;60.81
15193;BME280;7697;51.630;7.484;2023-04-23T10:20:00;99884.78;;;21.38;60.55
15193;BME280;7697;51.630;7.484;2023-04-23T10:25:04;99884.25;;;21.07;62.97
15193;BME280;7697;51.630;7.484;2023-04-23T10:30:10;99893.31;;;20.92;63.06
15193;BME280;7697;51.630;7.484;2023-04-23T10:35:13;99876.53;;;21.71;62.07
15193;BME280;7697;51.630;7.484;2023-04-23T10:40:19;99886.38;;;22.37;58.00
15193;BME280;7697;51.630;7.484;2023-04-23T10:45:23;99881.22;;;22.22;54.74
15193;BME280;7697;51.630;7.484;2023-04-23T10:50:27;99868.72;;;21.89;56.13
15193;BME280;7697;51.630;7.484;2023-04-23T10:55:30;99858.16;;;21.92;59.11
15193;BME280;7697;51.630;7.484;2023-04-23T11:00:44;99846.28;;;22.12;56.69
15193;BME280;7697;51.630;7.484;2023-04-23T11:05:46;99841.47;;;22.28;55.92
15193;BME280;7697;51.630;7.484;2023-04-23T11:10:53;99839.81;;;22.13;55.98
15193;BME280;7697;51.630;7.484;2023-04-23T11:16:14;99832.13;;;22.20;55.89
15193;BME280;7697;51.630;7.484;2023-04-23T11:21:18;99835.78;;;22.62;55.56
15193;BME280;7697;51.630;7.484;2023-04-23T11:26:20;99820.69;;;22.74;54.66
15193;BME280;7697;51.630;7.484;2023-04-23T11:31:25;99829.09;;;22.40;52.79
15193;BME280;7697;51.630;7.484;2023-04-23T11:36:27;99827.91;;;21.95;54.47
15193;BME280;7697;51.630;7.484;2023-04-23T11:41:28;99823.25;;;21.63;55.58
15193;BME280;7697;51.630;7.484;2023-04-23T11:46:31;99816.59;;;21.37;56.21
15193;BME280;7697;51.630;7.484;2023-04-23T11:51:33;99800.44;;;21.37;57.48
15193;BME280;7697;51.630;7.484;2023-04-23T11:56:36;99802.28;;;21.60;57.00
15193;BME280;7697;51.630;7.484;2023-04-23T12:01:41;99799.94;;;21.73;55.21
15193;BME280;7697;51.630;7.484;2023-04-23T12:06:44;99783.31;;;22.03;56.51
15193;BME280;7697;51.630;7.484;2023-04-23T12:11:47;99784.88;;;22.69;54.46
15193;BME280;7697;51.630;7.484;2023-04-23T12:16:52;99775.06;;;22.59;52.71
15193;BME280;7697;51.630;7.484;2023-04-23T12:21:55;99779.47;;;22.09;52.97
15193;BME280;7697;51.630;7.484;2023-04-23T12:26:59;99786.13;;;21.93;54.74
15193;BME280;7697;51.630;7.484;2023-04-23T12:32:03;99780.84;;;21.50;56.21
15193;BME280;7697;51.630;7.484;2023-04-23T12:37:06;99774.38;;;21.09;56.50
15193;BME280;7697;51.630;7.484;2023-04-23T12:42:07;99760.50;;;20.96;56.91
15193;BME280;7697;51.630;7.484;2023-04-23T12:52:15;99745.03;;;21.07;57.52
15193;BME280;7697;51.630;7.484;2023-04-23T12:57:16;99744.78;;;21.27;56.76
15193;BME280;7697;51.630;7.484;2023-04-23T13:02:23;99741.50;;;21.49;55.09
15193;BME280;7697;51.630;7.484;2023-04-23T13:07:25;99730.88;;;21.39;55.09
15193;BME280;7697;51.630;7.484;2023-04-23T13:12:27;99711.00;;;21.54;55.04
15193;BME280;7697;51.630;7.484;2023-04-23T13:17:30;99709.97;;;21.68;53.93
15193;BME280;7697;51.630;7.484;2023-04-23T13:22:32;99701.25;;;21.90;56.06
15193;BME280;7697;51.630;7.484;2023-04-23T13:27:34;99691.13;;;22.01;55.08
15193;BME280;7697;51.630;7.484;2023-04-23T13:32:37;99676.25;;;22.17;54.54
15193;BME280;7697;51.630;7.484;2023-04-23T13:37:39;99668.91;;;22.36;54.31
15193;BME280;7697;51.630;7.484;2023-04-23T13:42:41;99661.09;;;22.35;53.86
15193;BME280;7697;51.630;7.484;2023-04-23T13:47:44;99646.69;;;22.39;53.29
15193;BME280;7697;51.630;7.484;2023-04-23T13:52:46;99636.00;;;22.34;53.77
15193;BME280;7697;51.630;7.484;2023-04-23T13:57:48;99628.19;;;22.46;53.50
15193;BME280;7697;51.630;7.484;2023-04-23T14:02:51;99623.50;;;22.38;52.08
15193;BME280;7697;51.630;7.484;2023-04-23T14:07:52;99615.66;;;21.96;52.50
15193;BME280;7697;51.630;7.484;2023-04-23T14:12:54;99616.72;;;22.00;52.36
15193;BME280;7697;51.630;7.484;2023-04-23T14:17:57;99611.31;;;22.00;49.48
15193;BME280;7697;51.630;7.484;2023-04-23T14:23:02;99608.00;;;22.03;49.79
15193;BME280;7697;51.630;7.484;2023-04-23T14:28:22;99585.72;;;21.97;47.83
15193;BME280;7697;51.630;7.484;2023-04-23T14:33:29;99589.22;;;21.98;47.87
15193;BME280;7697;51.630;7.484;2023-04-23T14:38:31;99572.63;;;21.91;47.96
15193;BME280;7697;51.630;7.484;2023-04-23T14:43:32;99572.47;;;22.01;46.63
15193;BME280;7697;51.630;7.484;2023-04-23T14:48:36;99556.44;;;21.91;44.99
15193;BME280;7697;51.630;7.484;2023-04-23T14:53:37;99554.34;;;21.88;42.64
15193;BME280;7697;51.630;7.484;2023-04-23T14:58:39;99536.84;;;21.71;43.63
15193;BME280;7697;51.630;7.484;2023-04-23T15:03:43;99528.06;;;21.80;44.60
15193;BME280;7697;51.630;7.484;2023-04-23T15:08:45;99530.44;;;21.67;44.86
15193;BME280;7697;51.630;7.484;2023-04-23T15:13:55;99526.25;;;21.61;45.04
15193;BME280;7697;51.630;7.484;2023-04-23T15:19:04;99515.94;;;21.50;46.25
15193;BME280;7697;51.630;7.484;2023-04-23T15:24:07;99518.34;;;21.51;46.46
15193;BME280;7697;51.630;7.484;2023-04-23T15:29:08;99507.16;;;21.44;45.36
15193;BME280;7697;51.630;7.484;2023-04-23T15:34:12;99507.75;;;21.27;45.81
15193;BME280;7697;51.630;7.484;2023-04-23T15:39:13;99508.41;;;21.19;44.78
15193;BME280;7697;51.630;7.484;2023-04-23T15:49:19;99506.63;;;20.77;46.04
15193;BME280;7697;51.630;7.484;2023-04-23T15:54:21;99519.59;;;20.56;46.20
15193;BME280;7697;51.630;7.484;2023-04-23T15:59:23;99530.66;;;20.12;50.26
15193;BME280;7697;51.630;7.484;2023-04-23T16:04:26;99514.53;;;19.65;52.01
15193;BME280;7697;51.630;7.484;2023-04-23T16:09:27;99508.19;;;19.56;52.39
15193;BME280;7697;51.630;7.484;2023-04-23T16:14:29;99537.72;;;19.56;52.62
15193;BME280;7697;51.630;7.484;2023-04-23T16:19:32;99521.56;;;19.27;55.03
15193;BME280;7697;51.630;7.484;2023-04-23T16:24:34;99522.00;;;19.10;56.52
15193;BME280;7697;51.630;7.484;2023-04-23T16:29:36;99523.16;;;18.99;57.46
15193;BME280;7697;51.630;7.484;2023-04-23T16:34:39;99516.91;;;18.74;56.66
15193;BME280;7697;51.630;7.484;2023-04-23T16:39:41;99494.47;;;18.60;56.78
15193;BME280;7697;51.630;7.484;2023-04-23T16:44:42;99496.97;;;18.42;55.62
15193;BME280;7697;51.630;7.484;2023-04-23T16:49:46;99489.22;;;18.35;54.85
15193;BME280;7697;51.630;7.484;2023-04-23T16:54:48;99480.63;;;18.38;54.75
15193;BME280;7697;51.630;7.484;2023-04-23T16:59:50;99480.88;;;18.42;55.16
15193;BME280;7697;51.630;7.484;2023-04-23T17:04:53;99488.44;;;18.29;55.00
15193;BME280;7697;51.630;7.484;2023-04-23T17:09:55;99489.84;;;18.17;55.97
15193;BME280;7697;51.630;7.484;2023-04-23T17:14:57;99476.84;;;17.95;56.89
15193;BME280;7697;51.630;7.484;2023-04-23T17:20:00;99469.66;;;17.75;58.51
15193;BME280;7697;51.630;7.484;2023-04-23T17:25:03;99459.78;;;17.66;60.69
15193;BME280;7697;51.630;7.484;2023-04-23T17:30:06;99443.47;;;17.57;62.25
15193;BME280;7697;51.630;7.484;2023-04-23T17:35:09;99443.47;;;17.57;nan
15193;BME280;7697;51.630;7.484;2023-04-23T17:40:11;99437.59;;;17.50;63.22
15193;BME280;7697;51.630;7.484;2023-04-23T17:45:13;99446.72;;;17.44;64.93
15193;BME280;7697;51.630;7.484;2023-04-23T17:50:16;99467.34;;;17.33;67.00
15193;BME280;7697;51.630;7.484;2023-04-23T17:55:18;99476.22;;;17.03;69.05
15193;BME280;7697;51.630;7.484;2023-04-23T18:00:21;99490.41;;;16.78;72.18
15193;BME280;7697;51.630;7.484;2023-04-23T18:05:25;99478.00;;;16.42;75.93
15193;BME280;7697;51.630;7.484;2023-04-23T18:10:28;99438.41;;;16.08;77.40
15193;BME280;7697;51.630;7.484;2023-04-23T18:15:30;99438.63;;;16.02;77.95
15193;BME280;7697;51.630;7.484;2023-04-23T18:20:34;99435.91;;;15.87;79.37
15193;BME280;7697;51.630;7.484;2023-04-23T18:25:38;99432.59;;;15.54;80.65
15193;BME280;7697;51.630;7.484;2023-04-23T18:30:40;99414.72;;;15.60;80.35
15193;BME280;7697;51.630;7.484;2023-04-23T18:35:46;99396.84;;;15.55;81.44
15193;BME280;7697;51.630;7.484;2023-04-23T18:40:48;99405.81;;;15.44;82.19
15193;BME280;7697;51.630;7.484;2023-04-23T18:45:50;99403.72;;;15.46;82.78
15193;BME280;7697;51.630;7.484;2023-04-23T18:50:54;99409.81;;;15.42;83.13
15193;BME280;7697;51.630;7.484;2023-04-23T18:55:57;99402.03;;;15.35;83.38
15193;BME280;7697;51.630;7.484;2023-04-23T19:00:59;99389.72;;;15.24;84.66
15193;BME280;7697;51.630;7.484;2023-04-23T19:06:02;99389.38;;;15.10;85.56
15193;BME280;7697;51.630;7.484;2023-04-23T19:11:07;99373.00;;;14.96;86.44
15193;BME280;7697;51.630;7.484;2023-04-23T19:16:08;99366.88;;;14.96;86.51
15193;BME280;7697;51.630;7.484;2023-04-23T19:21:12;99361.78;;;14.89;87.09
15193;BME280;7697;51.630;7.484;2023-04-23T19:26:14;99371.31;;;14.80;87.58
15193;BME280;7697;51.630;7.484;2023-04-23T19:31:15;99363.00;;;14.72;87.81
15193;BME280;7697;51.630;7.484;2023-04-23T19:36:18;99359.22;;;14.68;88.02
15193;BME280;7697;51.630;7.484;2023-04-23T19:41:21;99348.03;;;14.66;88.49
15193;BME280;7697;51.630;7.484;2023-04-23T19:46:23;99339.25;;;14.70;88.33
15193;BME280;7697;51.630;7.484;2023-04-23T19:51:28;99331.44;;;14.58;88.82
15193;BME280;7697;51.630;7.484;2023-04-23T19:56:34;99328.50;;;14.55;89.34
15193;BME280;7697;51.630;7.484;2023-04-23T20:01:36;99332.19;;;14.49;89.88
15193;BME280;7697;51.630;7.484;2023-04-23T20:06:39;99334.59;;;14.50;89.92
15193;BME280;7697;51.630;7.484;2023-04-23T20:11:41;99334.88;;;14.49;89.32
15193;BME280;7697;51.630;7.484;2023-04-23T20:16:43;99331.09;;;14.45;89.76
15193;BME280;7697;51.630;7.484;2023-04-23T20:21:47;99334.56;;;14.45;89.54
15193;BME280;7697;51.630;7.484;2023-04-23T20:26:48;99344.09;;;14.41;90.14
15193;BME280;7697;51.630;7.484;2023-04-23T20:31:50;99344.41;;;14.45;90.07
15193;BME280;7697;51.630;7.484;2023-04-23T20:36:53;99333.16;;;14.38;90.33
15193;BME280;7697;51.630;7.484;2023-04-23T20:41:59;99336.78;;;14.26;90.18
15193;BME280;7697;51.630;7.484;2023-04-23T20:47:01;99336.22;;;14.24;89.83
15193;BME280;7697;51.630;7.484;2023-04-23T20:52:09;99352.75;;;14.26;89.39
15193;BME280;7697;51.630;7.484;2023-04-23T20:57:11;99338.84;;;14.19;89.19
15193;BME280;7697;51.630;7.484;2023-04-23T21:02:13;99340.38;;;14.10;89.46
15193;BME280;7697;51.630;7.484;2023-04-23T21:07:17;99337.63;;;14.05;89.55
15193;BME280;7697;51.630;7.484;2023-04-23T21:12:20;99315.81;;;14.03;89.63
15193;BME280;7697;51.630;7.484;2023-04-23T21:17:22;99328.56;;;14.01;88.61
15193;BME280;7697;51.630;7.484;2023-04-23T21:22:29;99313.63;;;13.95;88.59
15193;BME280;7697;51.630;7.484;2023-04-23T21:27:33;99313.56;;;13.90;88.93
15193;BME280;7697;51.630;7.484;2023-04-23T21:32:35;99313.56;;;13.90;89.46
15193;BME280;7697;51.630;7.484;2023-04-23T21:37:39;99313.81;;;13.88;89.79
15193;BME280;7697;51.630;7.484;2023-04-23T21:42:42;99321.59;;;13.95;88.99
15193;BME280;7697;51.630;7.484;2023-04-23T21:47:45;99309.84;;;13.91;88.41
15193;BME280;7697;51.630;7.484;2023-04-23T21:52:48;99305.06;;;13.93;86.72
15193;BME280;7697;51.630;7.484;2023-04-23T21:57:52;99313.31;;;13.92;85.28
15193;BME280;7697;51.630;7.484;2023-04-23T22:02:54;99320.50;;;13.91;84.34
15193;BME280;7697;51.630;7.484;2023-04-23T22:07:57;99317.78;;;13.86;83.60
15193;BME280;7697;51.630;7.484;2023-04-23T22:12:59;99316.72;;;13.87;84.09
15193;BME280;7697;51.630;7.484;2023-04-23T22:18:01;99321.19;;;13.81;83.64
15193;BME280;7697;51.630;7.484;2023-04-23T22:23:04;99320.84;;;13.73;82.95
15193;BME280;7697;51.630;7.484;2023-04-23T22:28:06;99336.75;;;13.68;82.76
15193;BME280;7697;51.630;7.484;2023-04-23T22:33:08;99334.09;;;13.68;82.67
15193;BME280;7697;51.630;7.484;2023-04-23T22:38:12;99339.88;;;13.60;81.40
15193;BME280;7697;51.630;7.484;2023-04-23T22:43:13;99335.47;;;13.48;80.93
15193;BME280;7697;51.630;7.484;2023-04-23T22:48:15;99344.50;;;13.47;79.86
15193;BME280;7697;51.630;7.484;2023-04-23T22:53:19;99346.56;;;13.40;79.73
15193;BME280;7697;51.630;7.484;2023-04-23T22:58:20;99335.22;;;13.28;80.15
15193;BME280;7697;51.630;7.484;2023-04-23T23:03:22;99325.50;;;13.17;80.44
15193;BME280;7697;51.630;7.484;2023-04-23T23:08:26;99341.72;;;13.15;80.22
15193;BME280;7697;51.630;7.484;2023-04-23T23:13:27;99348.31;;;13.13;80.23
15193;BME280;7697;51.630;7.484;2023-04-23T23:18:29;99348.78;;;13.10;80.12
15193;BME280;7697;51.630;7.484;2023-04-23T23:23:32;99335.00;;;13.13;80.41
15193;BME280;7697;51.630;7.484;2023-04-23T23:28:34;99328.91;;;13.12;80.56
15193;BME280;7697;51.630;7.484;2023-04-23T23:33:36;99333.50;;;13.17;80.61
15193;BME280;7697;51.630;7.484;2023-04-23T23:38:40;99330.28;;;13.15;80.63
15193;BME280;7697;51.630;7.484;2023-04-23T23:43:41;99310.06;;;13.14;80.04
15193;BME280;7697;51.630;7.484;2023-04-23T23:48:43;99317.53;;;13.17;80.45
15193;BME280;7697;51.630;7.484;2023-04-23T23:53:46;99310.53;;;13.11;79.24
15193;BME280;7697;51.630;7.484;2023-04-23T23:58:48;99315.00;;;13.05;78.93
